createdAt,value
2018-12-22T00:00:38.149Z,16.29
2018-12-22T00:03:07.066Z,16.26
2018-12-22T00:05:36.191Z,16.56
2018-12-22T00:08:11.442Z,17.15
2018-12-22T00:10:41.947Z,17.33
2018-12-22T00:13:10.576Z,16.65
2018-12-22T00:15:39.173Z,16.91
2018-12-22T00:18:08.196Z,17.86
2018-12-22T00:20:39.956Z,18.30
2018-12-22T00:23:10.487Z,18.41
2018-12-22T00:25:39.863Z,18.41
2018-12-22T00:28:08.233Z,18.64
2018-12-22T00:30:36.915Z,18.43
2018-12-22T00:33:06.216Z,18.47
2018-12-22T00:35:34.626Z,18.45
2018-12-22T00:38:03.196Z,18.20
2018-12-22T00:40:31.925Z,18.31
2018-12-22T00:43:00.771Z,18.59
2018-12-22T00:45:29.206Z,17.90
2018-12-22T00:47:57.851Z,18.41
2018-12-22T00:50:26.553Z,17.82
2018-12-22T00:52:56.223Z,17.66
2018-12-22T00:55:24.619Z,17.96
2018-12-22T00:57:53.118Z,17.34
2018-12-22T01:00:21.881Z,17.26
2018-12-22T01:02:51.200Z,16.23
2018-12-22T01:05:19.890Z,16.73
2018-12-22T01:07:48.457Z,16.24
2018-12-22T01:10:16.846Z,17.18
2018-12-22T01:12:45.369Z,16.45
2018-12-22T01:15:14.266Z,16.98
2018-12-22T01:17:42.766Z,16.66
2018-12-22T01:20:12.150Z,16.51
2018-12-22T01:22:40.744Z,16.69
2018-12-22T01:25:09.830Z,16.66
2018-12-22T01:27:38.299Z,16.51
2018-12-22T01:30:07.816Z,16.31
2018-12-22T01:32:36.472Z,16.58
2018-12-22T01:35:05.884Z,16.56
2018-12-22T01:37:34.749Z,16.68
2018-12-22T01:40:03.153Z,16.44
2018-12-22T01:42:31.611Z,16.75
2018-12-22T01:45:00.002Z,16.73
2018-12-22T01:47:28.329Z,16.28
2018-12-22T01:49:56.792Z,16.28
2018-12-22T01:52:25.290Z,17.18
2018-12-22T01:54:53.568Z,16.79
2018-12-22T01:57:21.850Z,16.28
2018-12-22T01:59:50.252Z,15.94
2018-12-22T02:02:18.532Z,16.85
2018-12-22T02:04:47.770Z,16.87
2018-12-22T02:07:16.659Z,16.84
2018-12-22T02:09:45.451Z,17.01
2018-12-22T02:12:14.306Z,17.16
2018-12-22T02:14:43.072Z,16.34
2018-12-22T02:17:12.145Z,15.98
2018-12-22T02:19:41.421Z,16.81
2018-12-22T02:22:10.508Z,16.54
2018-12-22T02:24:39.440Z,16.53
2018-12-22T02:27:08.268Z,15.99
2018-12-22T02:29:37.166Z,16.51
2018-12-22T02:32:06.159Z,16.94
2018-12-22T02:34:35.344Z,16.19
2018-12-22T02:37:04.180Z,16.10
2018-12-22T02:39:32.793Z,16.94
2018-12-22T02:42:01.154Z,17.54
2018-12-22T02:44:29.525Z,17.85
2018-12-22T02:46:57.812Z,17.91
2018-12-22T02:49:26.219Z,17.40
2018-12-22T02:51:54.616Z,16.37
2018-12-22T02:54:23.068Z,16.19
2018-12-22T02:56:51.437Z,17.18
2018-12-22T02:59:19.840Z,16.92
2018-12-22T03:01:48.353Z,17.22
2018-12-22T03:04:16.658Z,16.98
2018-12-22T03:06:45.237Z,17.25
2018-12-22T03:09:13.660Z,16.68
2018-12-22T03:11:41.898Z,16.24
2018-12-22T03:14:10.838Z,16.35
2018-12-22T03:16:39.248Z,16.65
2018-12-22T03:19:07.541Z,15.45
2018-12-22T03:21:35.871Z,14.80
2018-12-22T03:24:04.298Z,15.90
2018-12-22T03:26:32.602Z,15.10
2018-12-22T03:29:01.061Z,14.71
2018-12-22T03:31:29.349Z,15.92
2018-12-22T03:33:57.738Z,15.21
2018-12-22T03:36:26.098Z,15.75
2018-12-22T03:38:54.578Z,15.33
2018-12-22T03:41:22.890Z,15.50
2018-12-22T03:43:51.370Z,15.71
2018-12-22T03:46:19.682Z,16.36
2018-12-22T03:48:48.029Z,16.47
2018-12-22T03:51:16.486Z,16.39
2018-12-22T03:53:45.185Z,16.26
2018-12-22T03:56:13.747Z,17.10
2018-12-22T03:58:42.617Z,16.75
2018-12-22T04:01:11.783Z,17.27
2018-12-22T04:03:40.600Z,16.78
2018-12-22T04:06:09.665Z,16.72
2018-12-22T04:08:38.427Z,16.09
2018-12-22T04:11:08.191Z,15.99
2018-12-22T04:13:36.911Z,16.22
2018-12-22T04:16:05.512Z,16.17
2018-12-22T04:18:33.876Z,15.54
2018-12-22T04:21:03.295Z,15.22
2018-12-22T04:23:31.890Z,15.86
2018-12-22T04:26:00.352Z,15.40
2018-12-22T04:28:28.866Z,15.34
2018-12-22T04:30:57.228Z,15.17
2018-12-22T04:33:25.470Z,15.23
2018-12-22T04:35:53.851Z,15.69
2018-12-22T04:38:22.190Z,16.08
2018-12-22T04:40:50.691Z,15.54
2018-12-22T04:43:19.299Z,14.82
2018-12-22T04:45:47.751Z,14.97
2018-12-22T04:48:16.902Z,15.57
2018-12-22T04:50:45.353Z,15.27
2018-12-22T04:53:13.869Z,15.60
2018-12-22T04:55:42.336Z,15.53
2018-12-22T04:58:11.427Z,15.83
2018-12-22T05:00:40.094Z,15.43
2018-12-22T05:03:08.388Z,16.02
2018-12-22T05:05:36.834Z,15.49
2018-12-22T05:08:05.150Z,16.37
2018-12-22T05:10:33.465Z,16.06
2018-12-22T05:13:01.919Z,16.21
2018-12-22T05:15:30.345Z,16.63
2018-12-22T05:17:58.888Z,15.78
2018-12-22T05:20:27.327Z,15.90
2018-12-22T05:22:55.634Z,16.36
2018-12-22T05:25:23.933Z,15.86
2018-12-22T05:27:52.449Z,16.11
2018-12-22T05:30:20.953Z,16.24
2018-12-22T05:32:49.272Z,15.94
2018-12-22T05:35:17.674Z,16.16
2018-12-22T05:37:45.938Z,15.52
2018-12-22T05:40:14.214Z,15.48
2018-12-22T05:42:42.746Z,15.22
2018-12-22T05:45:11.074Z,15.90
2018-12-22T05:47:39.438Z,16.40
2018-12-22T05:50:07.885Z,16.09
2018-12-22T05:52:36.656Z,16.02
2018-12-22T05:55:05.785Z,15.22
2018-12-22T05:57:34.152Z,15.48
2018-12-22T06:00:02.816Z,15.62
2018-12-22T06:02:31.226Z,15.53
2018-12-22T06:04:59.601Z,15.46
2018-12-22T06:07:28.018Z,15.25
2018-12-22T06:09:56.550Z,14.82
2018-12-22T06:12:25.020Z,15.69
2018-12-22T06:14:53.313Z,16.01
2018-12-22T06:17:21.829Z,15.32
2018-12-22T06:19:50.187Z,14.62
2018-12-22T06:22:18.451Z,14.95
2018-12-22T06:24:46.952Z,14.96
2018-12-22T06:27:15.631Z,14.29
2018-12-22T06:29:44.082Z,13.98
2018-12-22T06:32:13.635Z,13.84
2018-12-22T06:34:42.342Z,14.41
2018-12-22T06:37:10.679Z,14.59
2018-12-22T06:39:39.147Z,14.31
2018-12-22T06:42:07.546Z,14.00
2018-12-22T06:44:35.965Z,13.80
2018-12-22T06:47:04.947Z,13.57
2018-12-22T06:49:33.761Z,13.16
2018-12-22T06:52:02.193Z,13.28
2018-12-22T06:54:30.851Z,14.40
2018-12-22T06:56:59.215Z,14.40
2018-12-22T06:59:27.793Z,14.50
2018-12-22T07:01:56.553Z,14.81
2018-12-22T07:04:25.881Z,15.08
2018-12-22T07:06:54.564Z,15.22
2018-12-22T07:09:23.147Z,14.38
2018-12-22T07:11:51.588Z,14.45
2018-12-22T07:14:20.542Z,14.61
2018-12-22T07:16:49.132Z,14.41
2018-12-22T07:19:19.218Z,14.29
2018-12-22T07:21:48.194Z,14.77
2018-12-22T07:24:17.673Z,14.74
2018-12-22T07:26:46.577Z,13.92
2018-12-22T07:29:15.356Z,13.60
2018-12-22T07:34:40.254Z,13.64
2018-12-22T07:37:09.118Z,13.68
2018-12-22T07:39:37.606Z,14.50
2018-12-22T07:42:06.406Z,14.23
2018-12-22T07:44:35.539Z,14.56
2018-12-22T07:47:04.003Z,15.47
2018-12-22T07:49:32.446Z,14.77
2018-12-22T07:52:00.766Z,14.37
2018-12-22T07:54:29.142Z,13.00
2018-12-22T07:56:57.559Z,13.48
2018-12-22T07:59:25.896Z,13.62
2018-12-22T08:01:54.620Z,13.27
2018-12-22T08:04:23.629Z,13.39
2018-12-22T08:06:52.993Z,13.17
2018-12-22T08:09:21.538Z,14.06
2018-12-22T08:11:50.088Z,14.17
2018-12-22T08:14:18.450Z,13.89
2018-12-22T08:16:46.878Z,14.37
2018-12-22T08:19:15.204Z,14.22
2018-12-22T08:21:43.499Z,14.39
2018-12-22T08:24:12.067Z,14.22
2018-12-22T08:26:40.565Z,14.46
2018-12-22T08:29:08.818Z,14.04
2018-12-22T08:31:37.107Z,13.99
2018-12-22T08:34:05.722Z,14.23
2018-12-22T08:36:34.158Z,13.86
2018-12-22T08:39:02.407Z,15.25
2018-12-22T08:41:30.864Z,14.20
2018-12-22T08:43:59.176Z,13.33
2018-12-22T08:46:27.618Z,13.77
2018-12-22T08:48:56.094Z,13.31
2018-12-22T08:51:24.394Z,13.65
2018-12-22T08:53:52.889Z,14.04
2018-12-22T08:56:21.855Z,13.50
2018-12-22T08:58:50.158Z,13.88
2018-12-22T09:01:18.536Z,14.53
2018-12-22T09:03:47.149Z,13.97
2018-12-22T09:06:15.454Z,14.74
2018-12-22T09:08:43.882Z,13.94
2018-12-22T09:11:12.327Z,14.32
2018-12-22T09:13:40.686Z,14.34
2018-12-22T09:16:08.930Z,14.23
2018-12-22T09:18:37.208Z,14.67
2018-12-22T09:21:05.598Z,14.73
2018-12-22T09:23:33.930Z,14.66
2018-12-22T09:26:02.274Z,14.99
2018-12-22T09:28:30.698Z,13.93
2018-12-22T09:31:00.913Z,14.44
2018-12-22T09:33:29.605Z,13.89
2018-12-22T09:35:58.041Z,13.88
2018-12-22T09:38:26.479Z,14.68
2018-12-22T09:40:55.654Z,14.77
2018-12-22T09:43:23.999Z,14.94
2018-12-22T09:45:52.320Z,14.78
2018-12-22T09:48:20.928Z,14.69
2018-12-22T09:50:49.498Z,14.79
2018-12-22T09:53:17.923Z,13.87
2018-12-22T09:55:46.891Z,14.59
2018-12-22T09:58:15.372Z,14.89
2018-12-22T10:00:43.774Z,14.42
2018-12-22T10:03:12.392Z,13.58
2018-12-22T10:05:43.963Z,14.10
2018-12-22T10:08:12.544Z,13.54
2018-12-22T10:10:41.001Z,14.99
2018-12-22T10:13:09.352Z,13.60
2018-12-22T10:15:37.718Z,13.74
2018-12-22T10:18:06.236Z,14.32
2018-12-22T10:20:34.586Z,13.66
2018-12-22T10:23:03.220Z,14.15
2018-12-22T10:25:31.721Z,14.70
2018-12-22T10:28:00.026Z,14.26
2018-12-22T10:30:28.472Z,14.98
2018-12-22T10:32:56.921Z,14.64
2018-12-22T10:35:28.495Z,14.49
2018-12-22T10:37:56.919Z,14.75
2018-12-22T10:40:25.813Z,14.93
2018-12-22T10:42:54.951Z,14.90
2018-12-22T10:45:23.441Z,15.17
2018-12-22T10:47:52.135Z,15.18
2018-12-22T10:50:20.619Z,15.09
2018-12-22T10:52:49.275Z,14.46
2018-12-22T10:55:17.602Z,15.04
2018-12-22T10:57:46.246Z,15.35
2018-12-22T11:00:16.778Z,14.72
2018-12-22T11:02:45.343Z,15.78
2018-12-22T11:05:15.469Z,15.69
2018-12-22T11:07:44.051Z,15.41
2018-12-22T11:10:18.302Z,14.44
2018-12-22T11:12:46.984Z,14.28
2018-12-22T11:15:15.382Z,14.58
2018-12-22T11:17:45.491Z,14.83
2018-12-22T11:20:13.943Z,13.84
2018-12-22T11:22:42.382Z,14.55
2018-12-22T11:25:14.800Z,14.62
2018-12-22T11:27:43.147Z,14.51
2018-12-22T11:30:15.787Z,14.77
2018-12-22T11:32:44.698Z,13.84
2018-12-22T11:35:13.457Z,14.64
2018-12-22T11:37:46.155Z,14.14
2018-12-22T11:40:14.571Z,14.30
2018-12-22T11:42:47.532Z,14.99
2018-12-22T11:45:13.856Z,13.64
2018-12-22T11:47:47.350Z,13.82
2018-12-22T11:50:20.109Z,13.23
2018-12-22T11:52:48.602Z,12.80
2018-12-22T11:55:16.976Z,12.50
2018-12-22T11:57:46.127Z,12.79
2018-12-22T12:00:15.826Z,12.88
2018-12-22T12:02:44.377Z,12.61
2018-12-22T12:05:13.640Z,13.01
2018-12-22T12:07:42.403Z,13.26
2018-12-22T12:10:13.322Z,13.13
2018-12-22T12:12:42.089Z,13.03
2018-12-22T12:15:16.839Z,13.65
2018-12-22T12:18:23.923Z,13.83
2018-12-22T12:20:52.374Z,13.58
2018-12-22T12:23:20.978Z,13.17
2018-12-22T12:25:49.624Z,13.53
2018-12-22T12:28:17.998Z,13.77
2018-12-22T12:30:46.262Z,15.12
2018-12-22T12:33:14.549Z,14.96
2018-12-22T12:35:42.959Z,15.05
2018-12-22T12:38:11.202Z,15.80
2018-12-22T12:40:39.594Z,16.27
2018-12-22T12:45:12.767Z,15.75
2018-12-22T12:47:41.475Z,16.99
2018-12-22T12:50:12.043Z,16.94
2018-12-22T12:52:41.354Z,15.54
2018-12-22T12:55:10.877Z,16.21
2018-12-22T12:57:39.280Z,15.17
2018-12-22T13:00:10.470Z,15.65
2018-12-22T13:02:38.720Z,15.04
2018-12-22T13:05:08.354Z,15.95
2018-12-22T13:07:36.823Z,16.37
2018-12-22T13:10:06.716Z,15.51
2018-12-22T13:12:41.688Z,16.15
2018-12-22T13:15:10.746Z,16.68
2018-12-22T13:17:39.470Z,14.58
2018-12-22T13:20:09.161Z,15.06
2018-12-22T13:22:37.463Z,15.80
2018-12-22T13:25:06.102Z,15.55
2018-12-22T13:27:34.587Z,15.61
2018-12-22T13:30:02.892Z,15.86
2018-12-22T13:32:31.184Z,15.30
2018-12-22T13:34:59.568Z,15.45
2018-12-22T13:37:27.995Z,16.98
2018-12-22T13:39:56.302Z,16.12
2018-12-22T13:42:24.719Z,16.00
2018-12-22T13:44:53.079Z,15.73
2018-12-22T13:47:21.535Z,15.31
2018-12-22T13:49:50.192Z,16.05
2018-12-22T13:52:19.239Z,16.52
2018-12-22T13:54:48.689Z,16.58
2018-12-22T13:57:17.235Z,15.86
2018-12-22T13:59:46.207Z,15.80
2018-12-22T14:02:18.292Z,16.14
2018-12-22T14:04:46.134Z,15.67
2018-12-22T14:07:14.442Z,14.98
2018-12-22T14:09:42.792Z,15.62
2018-12-22T14:12:11.088Z,15.22
2018-12-22T14:14:40.833Z,15.92
2018-12-22T14:17:18.328Z,15.46
2018-12-22T14:19:57.581Z,15.89
2018-12-22T14:22:26.497Z,14.74
2018-12-22T14:24:55.845Z,14.72
2018-12-22T14:27:27.004Z,15.19
2018-12-22T14:29:55.445Z,14.43
2018-12-22T14:32:26.988Z,14.61
2018-12-22T14:35:00.922Z,13.71
2018-12-22T14:37:29.283Z,14.31
2018-12-22T14:39:58.117Z,13.95
2018-12-22T14:42:27.069Z,13.86
2018-12-22T14:44:55.591Z,14.35
2018-12-22T14:47:23.861Z,13.89
2018-12-22T14:49:52.606Z,13.73
2018-12-22T14:52:20.959Z,14.36
2018-12-22T14:54:49.328Z,15.05
2018-12-22T14:57:17.756Z,15.33
2018-12-22T14:59:47.279Z,14.60
2018-12-22T15:02:15.603Z,14.27
2018-12-22T15:04:43.994Z,14.45
2018-12-22T15:07:12.553Z,14.13
2018-12-22T15:09:40.960Z,14.48
2018-12-22T15:12:09.417Z,14.25
2018-12-22T15:14:37.694Z,14.10
2018-12-22T15:17:06.421Z,14.82
2018-12-22T15:19:37.427Z,14.61
2018-12-22T15:22:06.665Z,14.84
2018-12-22T15:24:35.162Z,14.33
2018-12-22T15:27:03.612Z,14.29
2018-12-22T15:29:32.130Z,14.32
2018-12-22T15:32:00.752Z,14.81
2018-12-22T15:34:29.015Z,14.19
2018-12-22T15:36:57.466Z,14.20
2018-12-22T15:39:25.794Z,14.31
2018-12-22T15:41:54.093Z,14.23
2018-12-22T15:44:22.529Z,13.35
2018-12-22T15:46:50.941Z,13.38
2018-12-22T15:49:21.909Z,12.07
2018-12-22T15:51:50.450Z,12.61
2018-12-22T15:54:18.916Z,12.74
2018-12-22T15:56:47.429Z,13.01
2018-12-22T15:59:17.103Z,12.35
2018-12-22T16:01:45.590Z,13.23
2018-12-22T16:04:14.066Z,13.24
2018-12-22T16:06:44.037Z,12.42
2018-12-22T16:09:12.435Z,13.11
2018-12-22T16:11:40.763Z,14.03
2018-12-22T16:14:09.074Z,13.71
2018-12-22T16:16:37.371Z,14.84
2018-12-22T16:19:06.048Z,13.19
2018-12-22T16:21:34.362Z,13.98
2018-12-22T16:24:03.095Z,12.87
2018-12-22T16:26:33.206Z,13.20
2018-12-22T16:29:15.539Z,13.52
2018-12-22T16:31:43.869Z,14.06
2018-12-22T16:34:13.045Z,14.58
2018-12-22T16:36:41.622Z,13.78
2018-12-22T16:39:10.336Z,13.69
2018-12-22T16:41:38.691Z,13.86
2018-12-22T16:44:10.595Z,13.21
2018-12-22T16:46:39.106Z,12.52
2018-12-22T16:49:07.387Z,12.68
2018-12-22T16:51:35.961Z,12.32
2018-12-22T16:54:04.403Z,13.54
2018-12-22T16:56:32.729Z,13.13
2018-12-22T16:59:01.773Z,12.86
2018-12-22T17:01:42.450Z,12.79
2018-12-22T17:04:10.897Z,12.86
2018-12-22T17:06:40.496Z,13.51
2018-12-22T17:09:11.038Z,13.52
2018-12-22T17:11:39.856Z,14.28
2018-12-22T17:14:08.334Z,13.88
2018-12-22T17:16:37.332Z,13.63
2018-12-22T17:19:05.713Z,14.37
2018-12-22T17:21:56.046Z,14.24
2018-12-22T17:24:31.499Z,14.34
2018-12-22T17:26:59.982Z,13.64
2018-12-22T17:29:28.520Z,13.53
2018-12-22T17:31:56.979Z,13.04
2018-12-22T17:34:25.377Z,13.96
2018-12-22T17:36:53.794Z,13.92
2018-12-22T17:39:22.084Z,14.51
2018-12-22T17:41:51.021Z,13.86
2018-12-22T17:44:19.350Z,13.27
2018-12-22T17:46:47.607Z,13.40
2018-12-22T17:49:16.024Z,13.43
2018-12-22T17:51:44.272Z,13.34
2018-12-22T17:54:12.569Z,14.02
2018-12-22T17:56:40.977Z,14.69
2018-12-22T17:59:09.422Z,14.29
2018-12-22T18:01:37.683Z,14.26
2018-12-22T18:04:05.992Z,15.19
2018-12-22T18:06:34.395Z,14.82
2018-12-22T18:09:03.783Z,14.99
2018-12-22T18:11:32.300Z,14.59
2018-12-22T18:14:00.758Z,15.54
2018-12-22T18:16:29.216Z,14.90
2018-12-22T18:18:57.801Z,15.10
2018-12-22T18:21:26.198Z,15.44
2018-12-22T18:23:54.884Z,16.10
2018-12-22T18:26:25.147Z,16.45
2018-12-22T18:28:54.059Z,16.31
2018-12-22T18:31:22.657Z,16.39
2018-12-22T18:33:51.112Z,16.40
2018-12-22T18:36:19.539Z,16.62
2018-12-22T18:38:47.902Z,16.87
2018-12-22T18:41:16.266Z,16.73
2018-12-22T18:43:44.614Z,16.87
2018-12-22T18:46:12.961Z,16.95
2018-12-22T18:48:41.294Z,16.77
2018-12-22T18:51:09.735Z,16.15
2018-12-22T18:53:38.573Z,15.38
2018-12-22T18:56:06.908Z,15.60
2018-12-22T18:58:35.758Z,15.38
2018-12-22T19:01:04.150Z,16.17
2018-12-22T19:03:32.636Z,15.45
2018-12-22T19:06:01.012Z,15.67
2018-12-22T19:08:29.999Z,15.64
2018-12-22T19:11:02.445Z,15.47
2018-12-22T19:13:30.970Z,15.06
2018-12-22T19:15:59.363Z,15.17
2018-12-22T19:18:27.758Z,15.31
2018-12-22T19:20:56.050Z,15.47
2018-12-22T19:23:25.981Z,15.96
2018-12-22T19:25:54.670Z,15.88
2018-12-22T19:28:23.017Z,15.62
2018-12-22T19:30:51.680Z,15.20
2018-12-22T19:33:19.967Z,14.89
2018-12-22T19:35:48.383Z,14.62
2018-12-22T19:38:17.259Z,15.41
2018-12-22T19:40:46.067Z,15.44
2018-12-22T19:43:14.581Z,14.29
2018-12-22T19:45:43.008Z,15.04
2018-12-22T19:48:11.895Z,14.94
2018-12-22T19:50:40.332Z,15.06
2018-12-22T19:53:08.800Z,15.68
2018-12-22T19:55:37.148Z,15.98
2018-12-22T19:58:05.979Z,15.39
2018-12-22T20:00:34.281Z,16.22
2018-12-22T20:03:02.896Z,16.28
2018-12-22T20:05:31.347Z,15.02
2018-12-22T20:07:59.773Z,14.93
2018-12-22T20:10:28.163Z,15.36
2018-12-22T20:12:56.757Z,15.71
2018-12-22T20:15:25.411Z,15.60
2018-12-22T20:17:53.741Z,15.00
2018-12-22T20:20:22.124Z,14.04
2018-12-22T20:22:50.470Z,13.15
2018-12-22T20:25:18.985Z,13.32
2018-12-22T20:27:47.469Z,14.28
2018-12-22T20:30:15.876Z,14.42
2018-12-22T20:32:44.453Z,14.90
2018-12-22T20:35:12.779Z,14.93
2018-12-22T20:37:41.065Z,15.11
2018-12-22T20:40:09.514Z,15.45
2018-12-22T20:42:37.859Z,15.51
2018-12-22T20:45:06.590Z,14.87
2018-12-22T20:47:35.054Z,13.88
2018-12-22T20:50:03.433Z,14.37
2018-12-22T20:52:31.802Z,14.81
2018-12-22T20:55:00.194Z,15.03
2018-12-22T20:57:28.493Z,14.37
2018-12-22T20:59:57.192Z,15.66
2018-12-22T21:02:25.555Z,15.69
2018-12-22T21:04:54.083Z,15.39
2018-12-22T21:07:22.579Z,15.77
2018-12-22T21:09:52.144Z,15.98
2018-12-22T21:12:20.860Z,16.06
2018-12-22T21:14:49.179Z,16.06
2018-12-22T21:17:17.493Z,16.19
2018-12-22T21:19:45.806Z,16.21
2018-12-22T21:22:14.222Z,15.99
2018-12-22T21:24:42.643Z,15.60
2018-12-22T21:27:11.105Z,16.12
2018-12-22T21:29:39.484Z,15.83
2018-12-22T21:32:07.833Z,16.22
2018-12-22T21:34:36.150Z,15.04
2018-12-22T21:37:04.477Z,15.23
2018-12-22T21:39:32.912Z,16.05
2018-12-22T21:42:01.164Z,16.04
2018-12-22T21:44:29.610Z,14.95
2018-12-22T21:46:57.974Z,15.61
2018-12-22T21:49:26.414Z,16.23
2018-12-22T21:51:55.360Z,15.87
2018-12-22T21:54:23.820Z,15.99
2018-12-22T21:56:52.529Z,16.16
2018-12-22T21:59:20.804Z,14.96
2018-12-22T22:01:49.103Z,15.35
2018-12-22T22:04:17.495Z,14.16
2018-12-22T22:06:45.884Z,15.17
2018-12-22T22:09:14.533Z,14.91
2018-12-22T22:11:43.608Z,15.06
2018-12-22T22:14:12.260Z,15.20
2018-12-22T22:16:40.678Z,15.03
2018-12-22T22:19:09.002Z,15.22
2018-12-22T22:21:37.984Z,14.76
2018-12-22T22:24:06.335Z,14.44
2018-12-22T22:26:35.547Z,14.28
2018-12-22T22:29:04.046Z,13.92
2018-12-22T22:31:32.442Z,15.52
2018-12-22T22:34:00.766Z,15.35
2018-12-22T22:36:29.226Z,14.45
2018-12-22T22:38:57.643Z,14.38
2018-12-22T22:41:26.058Z,15.24
2018-12-22T22:43:54.353Z,14.48
2018-12-22T22:46:22.661Z,14.41
2018-12-22T22:48:51.261Z,14.70
2018-12-22T22:51:19.537Z,14.99
2018-12-22T22:53:47.891Z,14.96
2018-12-22T22:56:16.166Z,15.21
2018-12-22T22:58:44.599Z,15.48
2018-12-22T23:01:13.354Z,14.58
2018-12-22T23:03:41.733Z,14.28
2018-12-22T23:06:10.156Z,13.89
2018-12-22T23:08:38.595Z,14.40
2018-12-22T23:11:06.990Z,15.09
2018-12-22T23:13:35.351Z,14.84
2018-12-22T23:16:03.702Z,14.15
2018-12-22T23:18:32.001Z,15.14
2018-12-22T23:21:00.437Z,14.51
2018-12-22T23:23:28.786Z,15.08
2018-12-22T23:25:57.123Z,14.58
2018-12-22T23:28:25.497Z,13.87
2018-12-22T23:30:53.789Z,14.37
2018-12-22T23:33:22.203Z,14.32
2018-12-22T23:35:57.163Z,13.94
2018-12-22T23:38:25.556Z,13.64
2018-12-22T23:40:54.027Z,14.69
2018-12-22T23:43:22.469Z,14.08
2018-12-22T23:45:51.050Z,14.31
2018-12-22T23:48:19.347Z,14.43
2018-12-22T23:50:47.946Z,13.61
2018-12-22T23:53:16.485Z,14.01
2018-12-22T23:55:45.230Z,13.72
2018-12-22T23:58:14.144Z,14.75
